Nicholasville, Kentucky
Current Conditions -  °F | °C
As of 7:54 PM on Friday 19 Dec 2014 (Local Time) from KLEX Reporting Station
Clear Clear  
Wind Chill: 16°   Ceiling: Unl
Heat Index: 25°   Visibility: 9mi
Dew Point: 21°   Wind: 8mph
Humidity: 85%   Direction: 50°NE
Pressure: 30.27"   Gusts: NA
Location:  37.89°N, 84.57°W
Report Text: KLEX 200054Z 05007KT 9SM CLR M04/M06 A3027 RMK AO2 SLP262 T10391061
Loading
Personal Weather Stations






























Interactive Weather Map New forecast layout! Learn more

10-Day Weather Forecast

Advertisements
Track Severe Weather on mobile